createdAt,value
2023-01-07T00:02:09.534Z,11.70
2023-01-07T00:04:38.852Z,11.69
2023-01-07T00:07:06.724Z,11.63
2023-01-07T00:09:34.504Z,11.16
2023-01-07T00:12:02.569Z,11.15
2023-01-07T00:14:31.470Z,11.07
2023-01-07T00:16:59.404Z,11.11
2023-01-07T00:19:27.288Z,11.32
2023-01-07T00:21:56.630Z,11.35
2023-01-07T00:24:24.535Z,11.46
2023-01-07T00:26:52.446Z,11.47
2023-01-07T00:29:21.305Z,11.54
2023-01-07T00:31:49.528Z,11.45
2023-01-07T00:34:17.837Z,11.50
2023-01-07T00:36:47.395Z,11.49
2023-01-07T00:39:18.687Z,11.45
2023-01-07T00:42:02.184Z,11.47
2023-01-07T00:44:30.276Z,11.47
2023-01-07T00:46:58.373Z,11.41
2023-01-07T00:49:26.546Z,11.36
2023-01-07T00:51:55.467Z,11.41
2023-01-07T00:54:25.496Z,11.43
2023-01-07T00:56:53.414Z,11.44
2023-01-07T00:59:21.303Z,11.48
2023-01-07T01:01:49.330Z,11.50
2023-01-07T01:04:18.083Z,11.51
2023-01-07T01:06:46.051Z,11.38
2023-01-07T01:09:14.049Z,11.39
2023-01-07T01:11:43.451Z,11.44
2023-01-07T01:14:12.357Z,11.48
2023-01-07T01:16:40.370Z,11.50
2023-01-07T01:19:08.533Z,11.52
2023-01-07T01:21:36.608Z,11.50
2023-01-07T01:24:04.660Z,11.48
2023-01-07T01:26:32.670Z,11.41
2023-01-07T01:29:01.869Z,11.37
2023-01-07T01:31:33.722Z,11.36
2023-01-07T01:34:01.659Z,11.38
2023-01-07T01:36:29.861Z,11.41
2023-01-07T01:38:59.977Z,11.41
2023-01-07T01:41:31.526Z,11.38
2023-01-07T01:44:02.210Z,11.38
2023-01-07T01:46:36.184Z,11.36
2023-01-07T01:49:11.571Z,11.21
2023-01-07T01:51:46.571Z,11.23
2023-01-07T01:54:17.376Z,11.17
2023-01-07T01:56:52.256Z,11.03
2023-01-07T01:59:25.041Z,11.09
2023-01-07T02:01:55.395Z,11.01
2023-01-07T02:04:25.719Z,11.01
2023-01-07T02:06:58.512Z,11.02
2023-01-07T02:09:28.847Z,10.94
2023-01-07T02:12:05.925Z,10.95
2023-01-07T02:14:54.866Z,10.92
2023-01-07T02:17:34.670Z,11.04
2023-01-07T02:20:35.291Z,11.25
2023-01-07T02:23:47.843Z,11.21
2023-01-07T02:26:48.774Z,11.31
2023-01-07T02:30:08.127Z,11.34
2023-01-07T02:32:49.923Z,11.26
2023-01-07T02:35:32.741Z,11.32
2023-01-07T02:38:14.151Z,11.30
2023-01-07T02:40:51.277Z,11.27
2023-01-07T02:43:31.053Z,11.04
2023-01-07T02:46:06.616Z,10.95
2023-01-07T02:48:37.730Z,11.10
2023-01-07T02:51:06.589Z,11.19
2023-01-07T02:53:35.075Z,11.15
2023-01-07T02:56:18.488Z,11.17
2023-01-07T02:59:01.859Z,11.15
2023-01-07T03:01:46.138Z,11.25
2023-01-07T03:04:28.960Z,11.27
2023-01-07T03:07:11.928Z,11.20
2023-01-07T03:09:51.334Z,11.26
2023-01-07T03:12:28.061Z,11.19
2023-01-07T03:15:00.651Z,11.26
2023-01-07T03:17:35.579Z,11.16
2023-01-07T03:20:07.828Z,11.19
2023-01-07T03:22:37.467Z,11.25
2023-01-07T03:25:07.954Z,11.30
2023-01-07T03:27:37.058Z,11.33
2023-01-07T03:30:09.946Z,11.28
2023-01-07T03:32:42.646Z,11.02
2023-01-07T03:35:12.278Z,11.16
2023-01-07T03:37:43.825Z,11.05
2023-01-07T03:40:13.223Z,11.24
2023-01-07T03:42:41.716Z,11.28
2023-01-07T03:45:20.857Z,11.29
2023-01-07T03:47:50.914Z,11.29
2023-01-07T03:50:21.522Z,11.27
2023-01-07T03:52:50.786Z,11.19
2023-01-07T03:55:23.743Z,11.10
2023-01-07T03:57:54.498Z,11.19
2023-01-07T04:00:25.481Z,11.05
2023-01-07T04:03:00.364Z,11.01
2023-01-07T04:05:34.364Z,11.15
2023-01-07T04:08:02.219Z,11.30
2023-01-07T04:10:34.290Z,11.11
2023-01-07T04:13:02.159Z,10.99
2023-01-07T04:15:30.699Z,11.23
2023-01-07T04:17:58.728Z,11.33
2023-01-07T04:20:27.376Z,11.14
2023-01-07T04:22:56.760Z,11.15
2023-01-07T04:25:24.647Z,11.13
2023-01-07T04:27:52.645Z,11.10
2023-01-07T04:30:20.464Z,10.80
2023-01-07T04:32:48.613Z,10.73
2023-01-07T04:35:16.599Z,10.73
2023-01-07T04:37:44.763Z,10.73
2023-01-07T04:40:14.407Z,10.98
2023-01-07T04:42:42.386Z,11.16
2023-01-07T04:45:11.694Z,11.20
2023-01-07T04:47:40.173Z,11.18
2023-01-07T04:50:09.320Z,11.22
2023-01-07T04:52:38.097Z,11.22
2023-01-07T04:55:07.995Z,11.15
2023-01-07T04:57:37.297Z,11.16
2023-01-07T05:00:06.901Z,11.06
2023-01-07T05:02:35.451Z,11.08
2023-01-07T05:05:03.957Z,11.00
2023-01-07T05:07:31.869Z,10.93
2023-01-07T05:10:00.428Z,10.92
2023-01-07T05:12:29.464Z,10.99
2023-01-07T05:14:59.789Z,10.95
2023-01-07T05:17:27.720Z,11.00
2023-01-07T05:19:55.545Z,10.93
2023-01-07T05:22:24.500Z,10.89
2023-01-07T05:24:52.406Z,10.88
2023-01-07T05:27:21.123Z,10.78
2023-01-07T05:29:49.059Z,10.83
2023-01-07T05:32:18.325Z,10.89
2023-01-07T05:34:47.953Z,10.88
2023-01-07T05:37:16.573Z,10.92
2023-01-07T05:39:45.079Z,11.00
2023-01-07T05:42:17.954Z,10.88
2023-01-07T05:44:45.883Z,10.91
2023-01-07T05:47:16.308Z,10.95
2023-01-07T05:49:45.605Z,11.07
2023-01-07T05:52:13.466Z,11.04
2023-01-07T05:54:41.505Z,11.03
2023-01-07T05:57:09.381Z,11.00
2023-01-07T05:59:37.154Z,10.91
2023-01-07T06:02:05.671Z,10.93
2023-01-07T06:04:34.276Z,10.83
2023-01-07T06:07:03.644Z,10.84
2023-01-07T06:09:33.550Z,10.84
2023-01-07T06:12:01.396Z,10.74
2023-01-07T06:14:29.149Z,10.58
2023-01-07T06:16:59.647Z,10.59
2023-01-07T06:19:27.495Z,10.51
2023-01-07T06:21:55.310Z,10.64
2023-01-07T06:24:24.540Z,10.71
2023-01-07T06:26:52.454Z,10.74
2023-01-07T06:29:22.550Z,10.77
2023-01-07T06:31:50.491Z,10.53
2023-01-07T06:34:20.440Z,10.43
2023-01-07T06:36:48.325Z,10.54
2023-01-07T06:39:16.384Z,10.54
2023-01-07T06:41:45.586Z,10.74
2023-01-07T06:44:13.381Z,10.66
2023-01-07T06:46:41.304Z,10.66
2023-01-07T06:49:09.236Z,10.69
2023-01-07T06:51:37.191Z,10.64
2023-01-07T06:54:05.212Z,10.58
2023-01-07T06:56:38.508Z,10.67
2023-01-07T06:59:12.728Z,10.73
2023-01-07T07:01:41.774Z,10.78
2023-01-07T07:04:09.940Z,10.73
2023-01-07T07:06:37.920Z,10.78
2023-01-07T07:09:05.793Z,10.79
2023-01-07T07:11:33.704Z,10.83
2023-01-07T07:14:01.620Z,10.84
2023-01-07T07:16:32.638Z,10.87
2023-01-07T07:19:00.661Z,10.79
2023-01-07T07:21:28.598Z,10.76
2023-01-07T07:23:56.491Z,10.63
2023-01-07T07:26:24.312Z,10.39
2023-01-07T07:28:52.187Z,10.33
2023-01-07T07:31:20.096Z,10.42
2023-01-07T07:33:49.294Z,10.31
2023-01-07T07:36:17.183Z,10.13
2023-01-07T07:38:45.056Z,10.19
2023-01-07T07:41:14.994Z,10.24
2023-01-07T07:43:42.951Z,10.42
2023-01-07T07:46:10.888Z,10.28
2023-01-07T07:48:38.758Z,10.24
2023-01-07T07:51:08.310Z,10.48
2023-01-07T07:53:36.204Z,10.41
2023-01-07T07:56:04.040Z,10.45
2023-01-07T07:58:32.084Z,10.52
2023-01-07T08:01:00.015Z,10.61
2023-01-07T08:03:30.573Z,10.58
2023-01-07T08:05:59.653Z,10.70
2023-01-07T08:08:28.998Z,10.62
2023-01-07T08:10:57.400Z,10.70
2023-01-07T08:13:25.862Z,10.78
2023-01-07T08:15:53.825Z,10.67
2023-01-07T08:18:21.740Z,10.72
2023-01-07T08:20:49.673Z,10.77
2023-01-07T08:23:17.978Z,10.82
2023-01-07T08:25:47.163Z,10.85
2023-01-07T08:28:15.017Z,10.84
2023-01-07T08:30:44.050Z,10.86
2023-01-07T08:33:12.082Z,10.91
2023-01-07T08:35:39.848Z,10.94
2023-01-07T08:38:09.270Z,11.00
2023-01-07T08:40:38.464Z,11.02
2023-01-07T08:43:08.968Z,11.02
2023-01-07T08:45:37.378Z,11.09
2023-01-07T08:48:08.169Z,11.14
2023-01-07T08:50:35.983Z,11.20
2023-01-07T08:53:03.867Z,11.20
2023-01-07T08:55:31.658Z,11.15
2023-01-07T08:57:59.733Z,11.04
2023-01-07T09:00:28.939Z,11.17
2023-01-07T09:02:56.907Z,11.21
2023-01-07T09:05:26.854Z,11.19
2023-01-07T09:07:55.650Z,11.22
2023-01-07T09:10:26.523Z,11.02
2023-01-07T09:12:54.377Z,11.24
2023-01-07T09:15:22.351Z,11.20
2023-01-07T09:17:51.463Z,11.10
2023-01-07T09:20:20.093Z,11.01
2023-01-07T09:22:47.987Z,11.26
2023-01-07T09:25:16.403Z,11.21
2023-01-07T09:27:45.619Z,11.24
2023-01-07T09:30:14.076Z,11.19
2023-01-07T09:32:44.512Z,11.15
2023-01-07T09:35:15.482Z,11.17
2023-01-07T09:37:43.375Z,11.46
2023-01-07T09:40:19.722Z,11.51
2023-01-07T09:42:56.349Z,11.54
2023-01-07T09:45:28.302Z,11.43
2023-01-07T09:47:59.259Z,11.49
2023-01-07T09:50:42.101Z,11.40
2023-01-07T09:53:16.127Z,11.38
2023-01-07T09:56:10.869Z,11.48
2023-01-07T09:58:33.335Z,11.59
2023-01-07T10:01:09.198Z,11.33
2023-01-07T10:03:52.294Z,11.38
2023-01-07T10:06:42.237Z,11.60
2023-01-07T10:09:22.952Z,11.67
2023-01-07T10:12:00.796Z,11.61
2023-01-07T10:15:04.359Z,11.54
2023-01-07T10:17:43.583Z,11.74
2023-01-07T10:20:20.707Z,11.64
2023-01-07T10:22:54.815Z,11.78
2023-01-07T10:25:27.347Z,12.30
2023-01-07T10:27:59.816Z,12.01
2023-01-07T10:30:31.490Z,12.02
2023-01-07T10:33:12.080Z,12.49
2023-01-07T10:35:41.698Z,12.41
2023-01-07T10:38:16.252Z,12.47
2023-01-07T10:40:48.868Z,12.22
2023-01-07T10:43:27.447Z,12.19
2023-01-07T10:46:18.800Z,12.15
2023-01-07T10:49:10.382Z,12.11
2023-01-07T10:51:51.755Z,12.28
2023-01-07T10:54:38.303Z,12.52
2023-01-07T10:57:11.339Z,12.83
2023-01-07T10:59:39.766Z,12.61
2023-01-07T11:02:17.933Z,12.54
2023-01-07T11:04:46.059Z,12.74
2023-01-07T11:07:24.067Z,12.95
2023-01-07T11:09:54.604Z,13.01
2023-01-07T11:12:33.841Z,12.88
2023-01-07T11:15:06.201Z,12.98
2023-01-07T11:17:38.670Z,13.56
2023-01-07T11:20:08.100Z,13.44
2023-01-07T11:22:38.098Z,13.66
2023-01-07T11:25:29.129Z,13.82
2023-01-07T11:28:00.082Z,13.72
2023-01-07T11:30:30.044Z,13.89
2023-01-07T11:33:01.556Z,13.90
2023-01-07T11:35:31.859Z,13.67
2023-01-07T11:38:02.127Z,13.48
2023-01-07T11:40:32.870Z,13.40
2023-01-07T11:43:02.631Z,13.73
2023-01-07T11:45:34.034Z,13.75
2023-01-07T11:48:08.003Z,13.81
2023-01-07T11:50:38.616Z,14.14
2023-01-07T11:53:28.054Z,14.34
2023-01-07T11:56:00.627Z,14.31
2023-01-07T11:58:31.252Z,14.39
2023-01-07T12:01:21.587Z,14.27
2023-01-07T12:04:14.604Z,14.65
2023-01-07T12:06:47.132Z,14.78
2023-01-07T12:09:23.841Z,14.82
2023-01-07T12:11:54.704Z,14.92
2023-01-07T12:14:31.529Z,14.69
2023-01-07T12:17:11.068Z,15.30
2023-01-07T12:20:08.267Z,14.92
2023-01-07T12:22:45.950Z,14.94
2023-01-07T12:25:36.979Z,14.66
2023-01-07T12:28:12.875Z,14.60
2023-01-07T12:31:19.183Z,14.87
2023-01-07T12:34:04.986Z,14.94
2023-01-07T12:36:43.268Z,14.26
2023-01-07T12:39:20.238Z,14.72
2023-01-07T12:41:58.111Z,14.55
2023-01-07T12:44:28.079Z,14.89
2023-01-07T12:47:30.742Z,14.75
2023-01-07T12:49:59.868Z,14.37
2023-01-07T12:52:37.759Z,14.56
2023-01-07T12:55:14.754Z,14.84
2023-01-07T12:57:45.352Z,14.59
2023-01-07T13:00:20.120Z,14.38
2023-01-07T13:02:54.469Z,14.62
2023-01-07T13:05:26.205Z,14.77
2023-01-07T13:07:58.051Z,14.16
2023-01-07T13:10:29.568Z,13.87
2023-01-07T13:13:02.412Z,14.24
2023-01-07T13:15:33.928Z,14.05
2023-01-07T13:18:13.987Z,14.17
2023-01-07T13:21:06.901Z,14.19
2023-01-07T13:24:07.208Z,14.03
2023-01-07T13:26:45.920Z,14.24
2023-01-07T13:29:28.777Z,13.98
2023-01-07T13:32:28.966Z,13.89
2023-01-07T13:35:18.734Z,13.58
2023-01-07T13:38:01.192Z,14.03
2023-01-07T13:40:48.841Z,14.05
2023-01-07T13:43:30.380Z,14.00
2023-01-07T13:46:01.395Z,13.81
2023-01-07T13:48:31.030Z,13.76
2023-01-07T13:51:01.128Z,13.88
2023-01-07T13:53:34.924Z,13.90
2023-01-07T13:56:37.853Z,13.76
2023-01-07T13:59:27.983Z,13.68
2023-01-07T14:02:22.185Z,13.65
2023-01-07T14:05:04.149Z,13.46
2023-01-07T14:07:32.875Z,13.67
2023-01-07T14:10:00.758Z,13.63
2023-01-07T14:13:05.993Z,13.80
2023-01-07T14:16:01.293Z,13.47
2023-01-07T14:19:04.147Z,13.85
2023-01-07T14:21:57.013Z,13.56
2023-01-07T14:24:56.081Z,13.50
2023-01-07T14:27:47.252Z,13.39
2023-01-07T14:30:21.519Z,13.49
2023-01-07T14:32:58.143Z,13.33
2023-01-07T14:35:32.993Z,13.11
2023-01-07T14:38:02.398Z,13.20
2023-01-07T14:41:07.718Z,13.19
2023-01-07T14:44:00.153Z,13.03
2023-01-07T14:46:53.588Z,12.83
2023-01-07T14:49:51.014Z,12.87
2023-01-07T14:52:50.253Z,12.99
2023-01-07T14:55:32.285Z,12.95
2023-01-07T14:58:23.666Z,12.89
2023-01-07T15:01:13.890Z,12.75
2023-01-07T15:04:09.302Z,12.70
2023-01-07T15:06:39.279Z,12.35
2023-01-07T15:09:29.451Z,12.39
2023-01-07T15:12:20.271Z,12.42
2023-01-07T15:15:11.173Z,12.35
2023-01-07T15:17:40.382Z,12.27
2023-01-07T15:20:10.293Z,12.21
2023-01-07T15:22:53.095Z,12.31
2023-01-07T15:25:33.568Z,12.45
2023-01-07T15:28:12.165Z,12.31
2023-01-07T15:30:51.372Z,12.30
2023-01-07T15:33:41.898Z,12.27
2023-01-07T15:36:13.880Z,12.23
2023-01-07T15:38:45.964Z,12.21
2023-01-07T15:41:30.739Z,12.23
2023-01-07T15:44:02.183Z,12.08
2023-01-07T15:46:32.191Z,12.05
2023-01-07T15:49:14.565Z,12.13
2023-01-07T15:51:44.590Z,11.93
2023-01-07T15:54:30.352Z,11.95
2023-01-07T15:57:01.459Z,11.59
2023-01-07T15:59:33.246Z,11.47
2023-01-07T16:02:07.336Z,11.46
2023-01-07T16:04:38.580Z,11.38
2023-01-07T16:07:06.646Z,11.25
2023-01-07T16:09:35.317Z,11.14
2023-01-07T16:12:03.256Z,11.16
2023-01-07T16:14:38.064Z,11.11
2023-01-07T16:17:16.448Z,11.12
2023-01-07T16:19:44.421Z,11.22
2023-01-07T16:22:16.502Z,11.32
2023-01-07T16:24:50.624Z,11.38
2023-01-07T16:27:24.108Z,11.30
2023-01-07T16:29:55.931Z,11.32
2023-01-07T16:32:25.574Z,11.29
2023-01-07T16:35:07.555Z,11.14
2023-01-07T16:37:39.552Z,11.03
2023-01-07T16:40:19.033Z,11.13
2023-01-07T16:42:49.172Z,11.04
2023-01-07T16:45:27.601Z,11.02
2023-01-07T16:48:17.955Z,11.00
2023-01-07T16:50:47.543Z,10.91
2023-01-07T16:53:30.590Z,10.78
2023-01-07T16:56:14.691Z,10.86
2023-01-07T16:58:48.728Z,10.92
2023-01-07T17:01:20.458Z,10.81
2023-01-07T17:03:56.546Z,10.85
2023-01-07T17:06:29.994Z,10.77
2023-01-07T17:08:58.779Z,10.78
2023-01-07T17:11:32.734Z,10.78
2023-01-07T17:14:03.011Z,10.74
2023-01-07T17:16:33.641Z,10.79
2023-01-07T17:19:26.177Z,10.63
2023-01-07T17:21:54.612Z,10.56
2023-01-07T17:24:50.589Z,10.50
2023-01-07T17:27:26.850Z,10.42
2023-01-07T17:29:54.958Z,10.52
2023-01-07T17:32:25.219Z,10.45
2023-01-07T17:34:53.216Z,10.32
2023-01-07T17:37:21.366Z,10.29
2023-01-07T17:39:51.315Z,10.05
2023-01-07T17:42:42.344Z,9.91
2023-01-07T17:45:16.855Z,9.93
2023-01-07T17:47:46.333Z,9.99
2023-01-07T17:50:15.802Z,9.83
2023-01-07T17:52:46.278Z,9.96
2023-01-07T17:55:16.316Z,9.76
2023-01-07T17:57:44.207Z,9.93
2023-01-07T18:00:21.188Z,10.08
2023-01-07T18:02:51.685Z,10.14
2023-01-07T18:05:21.379Z,9.74
2023-01-07T18:07:50.370Z,9.90
2023-01-07T18:10:20.138Z,9.72
2023-01-07T18:12:47.645Z,9.86
2023-01-07T18:15:20.749Z,9.93
2023-01-07T18:17:50.153Z,9.94
2023-01-07T18:20:19.610Z,9.89
2023-01-07T18:22:48.080Z,9.97
2023-01-07T18:25:18.447Z,9.83
2023-01-07T18:27:46.924Z,9.76
2023-01-07T18:30:16.883Z,9.66
2023-01-07T18:32:45.570Z,9.61
2023-01-07T18:35:15.238Z,9.47
2023-01-07T18:37:43.001Z,9.62
2023-01-07T18:40:11.490Z,9.24
2023-01-07T18:42:39.256Z,9.18
2023-01-07T18:45:10.720Z,9.13
2023-01-07T18:47:38.543Z,8.88
2023-01-07T18:50:08.488Z,9.21
2023-01-07T18:52:39.565Z,9.29
2023-01-07T18:55:08.854Z,9.45
2023-01-07T18:57:37.017Z,9.39
2023-01-07T19:00:06.221Z,9.09
2023-01-07T19:02:33.968Z,9.02
2023-01-07T19:05:01.735Z,9.20
2023-01-07T19:07:30.569Z,9.06
2023-01-07T19:10:02.174Z,9.23
2023-01-07T19:12:30.011Z,9.31
2023-01-07T19:14:57.769Z,9.22
2023-01-07T19:17:25.612Z,9.09
2023-01-07T19:19:53.387Z,9.10
2023-01-07T19:22:21.314Z,8.91
2023-01-07T19:24:49.093Z,8.82
2023-01-07T19:27:22.011Z,8.65
2023-01-07T19:29:50.054Z,8.62
2023-01-07T19:32:17.909Z,8.70
2023-01-07T19:34:45.814Z,8.66
2023-01-07T19:37:13.691Z,8.73
2023-01-07T19:39:41.576Z,8.75
2023-01-07T19:42:09.937Z,8.73
2023-01-07T19:44:41.281Z,8.62
2023-01-07T19:47:09.397Z,8.76
2023-01-07T19:49:37.159Z,8.61
2023-01-07T19:52:05.112Z,8.67
2023-01-07T19:54:32.879Z,8.68
2023-01-07T19:57:00.702Z,8.88
2023-01-07T19:59:28.447Z,8.55
2023-01-07T20:01:58.020Z,8.23
2023-01-07T20:04:27.299Z,7.91
2023-01-07T20:06:55.466Z,7.82
2023-01-07T20:09:23.396Z,7.62
2023-01-07T20:11:51.237Z,7.70
2023-01-07T20:14:19.175Z,7.75
2023-01-07T20:16:46.991Z,7.67
2023-01-07T20:19:16.221Z,8.19
2023-01-07T20:21:44.019Z,8.32
2023-01-07T20:24:13.148Z,8.30
2023-01-07T20:26:41.609Z,7.93
2023-01-07T20:29:09.492Z,8.38
2023-01-07T20:31:37.439Z,8.29
2023-01-07T20:34:05.383Z,8.13
2023-01-07T20:36:34.612Z,7.89
2023-01-07T20:39:05.918Z,7.89
2023-01-07T20:41:35.749Z,7.68
2023-01-07T20:44:05.484Z,7.82
2023-01-07T20:46:35.767Z,7.58
2023-01-07T20:49:04.712Z,7.57
2023-01-07T20:51:34.360Z,7.47
2023-01-07T20:54:02.319Z,7.43
2023-01-07T20:56:32.424Z,7.56
2023-01-07T20:59:01.783Z,7.23
2023-01-07T21:01:32.296Z,7.44
2023-01-07T21:04:01.824Z,7.59
2023-01-07T21:06:29.744Z,7.47
2023-01-07T21:08:59.040Z,7.43
2023-01-07T21:11:27.047Z,7.64
2023-01-07T21:13:56.301Z,7.43
2023-01-07T21:16:25.165Z,7.26
2023-01-07T21:18:53.004Z,7.31
2023-01-07T21:21:23.986Z,7.49
2023-01-07T21:23:52.183Z,7.30
2023-01-07T21:26:21.469Z,7.37
2023-01-07T21:28:49.453Z,7.46
2023-01-07T21:31:17.826Z,7.07
2023-01-07T21:33:45.761Z,7.29
2023-01-07T21:36:15.256Z,7.29
2023-01-07T21:38:43.951Z,7.46
2023-01-07T21:41:13.994Z,7.36
2023-01-07T21:43:43.595Z,7.60
2023-01-07T21:46:12.239Z,7.86
2023-01-07T21:48:41.606Z,7.93
2023-01-07T21:51:12.153Z,7.95
2023-01-07T21:53:40.049Z,7.84
2023-01-07T21:56:10.426Z,7.85
2023-01-07T21:58:38.747Z,7.82
2023-01-07T22:01:09.336Z,7.83
2023-01-07T22:03:37.988Z,7.94
2023-01-07T22:06:11.640Z,7.97
2023-01-07T22:08:39.425Z,7.93
2023-01-07T22:11:07.714Z,7.98
2023-01-07T22:13:35.504Z,8.08
2023-01-07T22:16:05.472Z,8.02
2023-01-07T22:18:34.761Z,8.05
2023-01-07T22:21:02.587Z,7.96
2023-01-07T22:23:30.379Z,8.05
2023-01-07T22:26:03.423Z,8.02
2023-01-07T22:28:32.999Z,7.97
2023-01-07T22:31:04.161Z,7.80
2023-01-07T22:33:31.878Z,7.97
2023-01-07T22:36:01.194Z,7.92
2023-01-07T22:38:29.884Z,7.96
2023-01-07T22:40:58.061Z,8.01
2023-01-07T22:43:26.783Z,7.82
2023-01-07T22:45:59.492Z,7.82
2023-01-07T22:48:33.185Z,7.80
2023-01-07T22:51:06.865Z,7.43
2023-01-07T22:53:34.705Z,7.69
2023-01-07T22:56:04.355Z,7.69
2023-01-07T22:58:32.277Z,7.58
2023-01-07T23:01:14.048Z,7.69
2023-01-07T23:03:42.717Z,7.86
2023-01-07T23:06:14.580Z,7.87
2023-01-07T23:08:43.685Z,7.83
2023-01-07T23:11:31.915Z,7.85
2023-01-07T23:13:59.898Z,7.89
2023-01-07T23:16:27.884Z,7.85
2023-01-07T23:18:55.747Z,7.95
2023-01-07T23:21:27.056Z,7.86
2023-01-07T23:23:54.860Z,7.43
2023-01-07T23:26:22.693Z,7.44
2023-01-07T23:28:50.467Z,7.16
2023-01-07T23:31:18.416Z,7.17
2023-01-07T23:33:46.235Z,7.35
2023-01-07T23:36:14.048Z,7.48
2023-01-07T23:38:43.835Z,7.59
2023-01-07T23:41:12.585Z,7.74
2023-01-07T23:43:40.352Z,7.74
2023-01-07T23:46:08.879Z,7.78
2023-01-07T23:48:38.192Z,7.71
2023-01-07T23:51:08.531Z,7.46
2023-01-07T23:53:39.219Z,7.20
2023-01-07T23:56:09.014Z,7.48
2023-01-07T23:58:37.519Z,7.64
